sensor_id;sensor_type;location;lat;lon;timestamp;temperature;humidity
13721;DHT22;6932;51.438;5.470;2024-03-22T00:01:54;16.60;99.90
13721;DHT22;6932;51.438;5.470;2024-03-22T00:04:20;16.60;99.90
13721;DHT22;6932;51.438;5.470;2024-03-22T00:06:47;16.60;99.90
13721;DHT22;6932;51.438;5.470;2024-03-22T00:09:14;16.60;99.90
13721;DHT22;6932;51.438;5.470;2024-03-22T00:11:40;16.60;99.90
13721;DHT22;6932;51.438;5.470;2024-03-22T00:14:07;16.60;99.90
13721;DHT22;6932;51.438;5.470;2024-03-22T00:16:34;16.60;99.90
13721;DHT22;6932;51.438;5.470;2024-03-22T00:19:00;16.60;99.90
13721;DHT22;6932;51.438;5.470;2024-03-22T00:21:26;16.60;99.90
13721;DHT22;6932;51.438;5.470;2024-03-22T00:23:52;16.60;99.90
13721;DHT22;6932;51.438;5.470;2024-03-22T00:26:17;16.60;99.90
13721;DHT22;6932;51.438;5.470;2024-03-22T00:28:43;16.60;99.90
13721;DHT22;6932;51.438;5.470;2024-03-22T00:31:09;16.60;99.90
13721;DHT22;6932;51.438;5.470;2024-03-22T00:33:35;16.60;99.90
13721;DHT22;6932;51.438;5.470;2024-03-22T00:36:01;16.60;99.90
13721;DHT22;6932;51.438;5.470;2024-03-22T00:38:27;16.60;99.90
13721;DHT22;6932;51.438;5.470;2024-03-22T00:40:53;16.60;99.90
13721;DHT22;6932;51.438;5.470;2024-03-22T00:43:19;16.60;99.90
13721;DHT22;6932;51.438;5.470;2024-03-22T00:45:46;16.60;99.90
13721;DHT22;6932;51.438;5.470;2024-03-22T00:48:12;16.60;99.90
13721;DHT22;6932;51.438;5.470;2024-03-22T00:50:38;16.70;99.90
13721;DHT22;6932;51.438;5.470;2024-03-22T00:53:04;16.60;99.90
13721;DHT22;6932;51.438;5.470;2024-03-22T00:55:30;16.70;99.90
13721;DHT22;6932;51.438;5.470;2024-03-22T00:57:57;16.70;99.90
13721;DHT22;6932;51.438;5.470;2024-03-22T01:00:23;16.70;99.90
13721;DHT22;6932;51.438;5.470;2024-03-22T01:02:50;16.70;99.90
13721;DHT22;6932;51.438;5.470;2024-03-22T01:05:16;16.70;99.90
13721;DHT22;6932;51.438;5.470;2024-03-22T01:07:43;16.70;99.90
13721;DHT22;6932;51.438;5.470;2024-03-22T01:10:10;16.70;99.90
13721;DHT22;6932;51.438;5.470;2024-03-22T01:12:36;16.70;99.90
13721;DHT22;6932;51.438;5.470;2024-03-22T01:15:04;16.70;99.90
13721;DHT22;6932;51.438;5.470;2024-03-22T01:17:30;16.70;99.90
13721;DHT22;6932;51.438;5.470;2024-03-22T01:19:56;16.70;99.90
13721;DHT22;6932;51.438;5.470;2024-03-22T01:22:22;16.70;99.90
13721;DHT22;6932;51.438;5.470;2024-03-22T01:24:48;16.70;99.90
13721;DHT22;6932;51.438;5.470;2024-03-22T01:27:14;16.70;99.90
13721;DHT22;6932;51.438;5.470;2024-03-22T01:29:40;16.70;99.90
13721;DHT22;6932;51.438;5.470;2024-03-22T01:32:06;16.70;99.90
13721;DHT22;6932;51.438;5.470;2024-03-22T01:34:32;16.70;99.90
13721;DHT22;6932;51.438;5.470;2024-03-22T01:36:58;16.70;99.90
13721;DHT22;6932;51.438;5.470;2024-03-22T01:39:24;16.70;99.90
13721;DHT22;6932;51.438;5.470;2024-03-22T01:41:50;16.80;99.90
13721;DHT22;6932;51.438;5.470;2024-03-22T01:44:17;16.70;99.90
13721;DHT22;6932;51.438;5.470;2024-03-22T01:46:44;16.80;99.90
13721;DHT22;6932;51.438;5.470;2024-03-22T01:49:12;16.80;99.90
13721;DHT22;6932;51.438;5.470;2024-03-22T01:51:40;16.80;99.90
13721;DHT22;6932;51.438;5.470;2024-03-22T01:54:09;16.80;99.90
13721;DHT22;6932;51.438;5.470;2024-03-22T01:56:39;16.80;99.90
13721;DHT22;6932;51.438;5.470;2024-03-22T01:59:06;16.80;99.90
13721;DHT22;6932;51.438;5.470;2024-03-22T02:01:32;16.80;99.90
13721;DHT22;6932;51.438;5.470;2024-03-22T02:03:59;16.80;99.90
13721;DHT22;6932;51.438;5.470;2024-03-22T02:06:25;16.80;99.90
13721;DHT22;6932;51.438;5.470;2024-03-22T02:08:51;16.80;99.90
13721;DHT22;6932;51.438;5.470;2024-03-22T02:11:17;16.80;99.90
13721;DHT22;6932;51.438;5.470;2024-03-22T02:13:43;16.80;99.90
13721;DHT22;6932;51.438;5.470;2024-03-22T02:16:09;16.80;99.90
13721;DHT22;6932;51.438;5.470;2024-03-22T02:18:35;16.80;99.90
13721;DHT22;6932;51.438;5.470;2024-03-22T02:21:01;16.80;99.90
13721;DHT22;6932;51.438;5.470;2024-03-22T02:23:37;16.80;99.90
13721;DHT22;6932;51.438;5.470;2024-03-22T02:26:04;16.80;99.90
13721;DHT22;6932;51.438;5.470;2024-03-22T02:28:31;16.80;99.90
13721;DHT22;6932;51.438;5.470;2024-03-22T02:30:58;16.80;99.90
13721;DHT22;6932;51.438;5.470;2024-03-22T02:33:24;16.80;99.90
13721;DHT22;6932;51.438;5.470;2024-03-22T02:35:51;16.80;99.90
13721;DHT22;6932;51.438;5.470;2024-03-22T02:38:17;16.80;99.90
13721;DHT22;6932;51.438;5.470;2024-03-22T02:40:44;16.80;99.90
13721;DHT22;6932;51.438;5.470;2024-03-22T02:43:11;16.80;99.90
13721;DHT22;6932;51.438;5.470;2024-03-22T02:45:37;16.80;99.90
13721;DHT22;6932;51.438;5.470;2024-03-22T02:48:04;16.80;99.90
13721;DHT22;6932;51.438;5.470;2024-03-22T02:50:34;16.80;99.90
13721;DHT22;6932;51.438;5.470;2024-03-22T02:53:01;16.80;99.90
13721;DHT22;6932;51.438;5.470;2024-03-22T02:55:27;16.80;99.90
13721;DHT22;6932;51.438;5.470;2024-03-22T02:57:52;16.80;99.90
13721;DHT22;6932;51.438;5.470;2024-03-22T03:00:18;16.80;99.90
13721;DHT22;6932;51.438;5.470;2024-03-22T03:02:45;16.70;99.90
13721;DHT22;6932;51.438;5.470;2024-03-22T03:05:11;16.70;99.90
13721;DHT22;6932;51.438;5.470;2024-03-22T03:07:37;16.80;99.90
13721;DHT22;6932;51.438;5.470;2024-03-22T03:10:03;16.80;99.90
13721;DHT22;6932;51.438;5.470;2024-03-22T03:12:29;16.80;99.90
13721;DHT22;6932;51.438;5.470;2024-03-22T03:14:54;16.80;99.90
13721;DHT22;6932;51.438;5.470;2024-03-22T03:17:20;16.80;99.90
13721;DHT22;6932;51.438;5.470;2024-03-22T03:19:46;16.80;99.90
13721;DHT22;6932;51.438;5.470;2024-03-22T03:22:13;16.70;99.90
13721;DHT22;6932;51.438;5.470;2024-03-22T03:24:38;16.80;99.90
13721;DHT22;6932;51.438;5.470;2024-03-22T03:27:04;16.70;99.90
13721;DHT22;6932;51.438;5.470;2024-03-22T03:29:30;16.70;99.90
13721;DHT22;6932;51.438;5.470;2024-03-22T03:31:56;16.70;99.90
13721;DHT22;6932;51.438;5.470;2024-03-22T03:34:22;16.70;99.90
13721;DHT22;6932;51.438;5.470;2024-03-22T03:36:47;16.70;99.90
13721;DHT22;6932;51.438;5.470;2024-03-22T03:39:13;16.70;99.90
13721;DHT22;6932;51.438;5.470;2024-03-22T03:41:39;16.70;99.90
13721;DHT22;6932;51.438;5.470;2024-03-22T03:44:05;16.70;99.90
13721;DHT22;6932;51.438;5.470;2024-03-22T03:46:30;16.70;99.90
13721;DHT22;6932;51.438;5.470;2024-03-22T03:48:56;16.70;99.90
13721;DHT22;6932;51.438;5.470;2024-03-22T03:51:22;16.60;99.90
13721;DHT22;6932;51.438;5.470;2024-03-22T03:53:48;16.60;99.90
13721;DHT22;6932;51.438;5.470;2024-03-22T03:56:14;16.60;99.90
13721;DHT22;6932;51.438;5.470;2024-03-22T03:58:39;16.60;99.90
13721;DHT22;6932;51.438;5.470;2024-03-22T04:01:06;16.60;99.90
13721;DHT22;6932;51.438;5.470;2024-03-22T04:03:32;16.60;99.90
13721;DHT22;6932;51.438;5.470;2024-03-22T04:05:59;16.60;99.90
13721;DHT22;6932;51.438;5.470;2024-03-22T04:08:25;16.60;99.90
13721;DHT22;6932;51.438;5.470;2024-03-22T04:10:53;16.60;99.90
13721;DHT22;6932;51.438;5.470;2024-03-22T04:13:21;16.50;99.90
13721;DHT22;6932;51.438;5.470;2024-03-22T04:15:47;16.50;99.90
13721;DHT22;6932;51.438;5.470;2024-03-22T04:18:12;16.50;99.90
13721;DHT22;6932;51.438;5.470;2024-03-22T04:20:38;16.50;99.90
13721;DHT22;6932;51.438;5.470;2024-03-22T04:23:04;16.50;99.90
13721;DHT22;6932;51.438;5.470;2024-03-22T04:25:29;16.50;99.90
13721;DHT22;6932;51.438;5.470;2024-03-22T04:27:55;16.50;99.90
13721;DHT22;6932;51.438;5.470;2024-03-22T04:30:21;16.50;99.90
13721;DHT22;6932;51.438;5.470;2024-03-22T04:32:47;16.50;99.90
13721;DHT22;6932;51.438;5.470;2024-03-22T04:35:13;16.50;99.90
13721;DHT22;6932;51.438;5.470;2024-03-22T04:37:39;16.40;99.90
13721;DHT22;6932;51.438;5.470;2024-03-22T04:40:05;16.40;99.90
13721;DHT22;6932;51.438;5.470;2024-03-22T04:42:31;16.40;99.90
13721;DHT22;6932;51.438;5.470;2024-03-22T04:44:57;16.40;99.90
13721;DHT22;6932;51.438;5.470;2024-03-22T04:47:23;16.40;99.90
13721;DHT22;6932;51.438;5.470;2024-03-22T04:49:49;16.40;99.90
13721;DHT22;6932;51.438;5.470;2024-03-22T04:52:14;16.40;99.90
13721;DHT22;6932;51.438;5.470;2024-03-22T04:54:40;16.40;99.90
13721;DHT22;6932;51.438;5.470;2024-03-22T04:57:06;16.40;99.90
13721;DHT22;6932;51.438;5.470;2024-03-22T04:59:32;16.40;99.90
13721;DHT22;6932;51.438;5.470;2024-03-22T05:01:57;16.40;99.90
13721;DHT22;6932;51.438;5.470;2024-03-22T05:04:23;16.40;99.90
13721;DHT22;6932;51.438;5.470;2024-03-22T05:06:49;16.40;99.90
13721;DHT22;6932;51.438;5.470;2024-03-22T05:09:15;16.40;99.90
13721;DHT22;6932;51.438;5.470;2024-03-22T05:11:41;16.30;99.90
13721;DHT22;6932;51.438;5.470;2024-03-22T05:14:06;16.40;99.90
13721;DHT22;6932;51.438;5.470;2024-03-22T05:16:32;16.30;99.90
13721;DHT22;6932;51.438;5.470;2024-03-22T05:18:58;16.30;99.90
13721;DHT22;6932;51.438;5.470;2024-03-22T05:21:24;16.40;99.90
13721;DHT22;6932;51.438;5.470;2024-03-22T05:23:50;16.30;99.90
13721;DHT22;6932;51.438;5.470;2024-03-22T05:26:15;16.30;99.90
13721;DHT22;6932;51.438;5.470;2024-03-22T05:28:41;16.30;99.90
13721;DHT22;6932;51.438;5.470;2024-03-22T05:31:07;16.30;99.90
13721;DHT22;6932;51.438;5.470;2024-03-22T05:33:34;16.30;99.90
13721;DHT22;6932;51.438;5.470;2024-03-22T05:36:00;16.30;99.90
13721;DHT22;6932;51.438;5.470;2024-03-22T05:38:25;16.20;99.90
13721;DHT22;6932;51.438;5.470;2024-03-22T05:40:51;16.20;99.90
13721;DHT22;6932;51.438;5.470;2024-03-22T05:43:17;16.30;99.90
13721;DHT22;6932;51.438;5.470;2024-03-22T05:45:42;16.20;99.90
13721;DHT22;6932;51.438;5.470;2024-03-22T05:48:08;16.20;99.90
13721;DHT22;6932;51.438;5.470;2024-03-22T05:50:34;16.20;99.90
13721;DHT22;6932;51.438;5.470;2024-03-22T05:53:00;16.20;99.90
13721;DHT22;6932;51.438;5.470;2024-03-22T05:55:25;16.20;99.90
13721;DHT22;6932;51.438;5.470;2024-03-22T05:57:52;16.20;99.90
13721;DHT22;6932;51.438;5.470;2024-03-22T06:00:18;16.10;99.90
13721;DHT22;6932;51.438;5.470;2024-03-22T06:02:44;16.10;99.90
13721;DHT22;6932;51.438;5.470;2024-03-22T06:05:10;16.20;99.90
13721;DHT22;6932;51.438;5.470;2024-03-22T06:07:35;16.20;99.90
13721;DHT22;6932;51.438;5.470;2024-03-22T06:10:08;16.10;99.90
13721;DHT22;6932;51.438;5.470;2024-03-22T06:12:35;16.10;99.90
13721;DHT22;6932;51.438;5.470;2024-03-22T06:15:02;16.10;99.90
13721;DHT22;6932;51.438;5.470;2024-03-22T06:17:32;16.10;99.90
13721;DHT22;6932;51.438;5.470;2024-03-22T06:19:59;16.10;99.90
13721;DHT22;6932;51.438;5.470;2024-03-22T06:22:30;16.10;99.90
13721;DHT22;6932;51.438;5.470;2024-03-22T06:24:55;16.10;99.90
13721;DHT22;6932;51.438;5.470;2024-03-22T06:27:21;16.10;99.90
13721;DHT22;6932;51.438;5.470;2024-03-22T06:29:47;16.10;99.90
13721;DHT22;6932;51.438;5.470;2024-03-22T06:32:12;16.10;99.90
13721;DHT22;6932;51.438;5.470;2024-03-22T06:34:38;16.10;99.90
13721;DHT22;6932;51.438;5.470;2024-03-22T06:37:04;16.10;99.90
13721;DHT22;6932;51.438;5.470;2024-03-22T06:39:30;16.10;99.90
13721;DHT22;6932;51.438;5.470;2024-03-22T06:41:55;16.10;99.90
13721;DHT22;6932;51.438;5.470;2024-03-22T06:44:21;16.10;99.90
13721;DHT22;6932;51.438;5.470;2024-03-22T06:46:47;16.10;99.90
13721;DHT22;6932;51.438;5.470;2024-03-22T06:49:13;16.10;99.90
13721;DHT22;6932;51.438;5.470;2024-03-22T06:51:38;16.10;99.90
13721;DHT22;6932;51.438;5.470;2024-03-22T06:54:04;16.10;99.90
13721;DHT22;6932;51.438;5.470;2024-03-22T06:56:30;16.20;99.90
13721;DHT22;6932;51.438;5.470;2024-03-22T06:58:56;16.20;99.90
13721;DHT22;6932;51.438;5.470;2024-03-22T07:01:22;16.20;99.90
13721;DHT22;6932;51.438;5.470;2024-03-22T07:03:47;16.20;99.90
13721;DHT22;6932;51.438;5.470;2024-03-22T07:06:14;16.20;99.90
13721;DHT22;6932;51.438;5.470;2024-03-22T07:08:40;16.20;99.90
13721;DHT22;6932;51.438;5.470;2024-03-22T07:11:07;16.20;99.90
13721;DHT22;6932;51.438;5.470;2024-03-22T07:13:34;16.20;99.90
13721;DHT22;6932;51.438;5.470;2024-03-22T07:16:00;16.20;99.90
13721;DHT22;6932;51.438;5.470;2024-03-22T07:18:25;16.20;99.90
13721;DHT22;6932;51.438;5.470;2024-03-22T07:20:51;16.20;99.90
13721;DHT22;6932;51.438;5.470;2024-03-22T07:23:17;16.20;99.90
13721;DHT22;6932;51.438;5.470;2024-03-22T07:25:43;16.20;99.90
13721;DHT22;6932;51.438;5.470;2024-03-22T07:28:11;16.20;99.90
13721;DHT22;6932;51.438;5.470;2024-03-22T07:30:37;16.20;99.90
13721;DHT22;6932;51.438;5.470;2024-03-22T07:33:03;16.30;99.90
13721;DHT22;6932;51.438;5.470;2024-03-22T07:35:29;16.30;99.90
13721;DHT22;6932;51.438;5.470;2024-03-22T07:37:56;16.30;99.90
13721;DHT22;6932;51.438;5.470;2024-03-22T07:40:22;16.30;99.90
13721;DHT22;6932;51.438;5.470;2024-03-22T07:42:47;16.40;99.90
13721;DHT22;6932;51.438;5.470;2024-03-22T07:45:13;16.50;99.90
13721;DHT22;6932;51.438;5.470;2024-03-22T07:47:39;16.50;99.90
13721;DHT22;6932;51.438;5.470;2024-03-22T07:50:07;16.50;99.90
13721;DHT22;6932;51.438;5.470;2024-03-22T07:52:34;16.60;99.90
13721;DHT22;6932;51.438;5.470;2024-03-22T07:54:59;16.60;99.90
13721;DHT22;6932;51.438;5.470;2024-03-22T07:57:28;16.60;99.90
13721;DHT22;6932;51.438;5.470;2024-03-22T07:59:57;16.60;99.90
13721;DHT22;6932;51.438;5.470;2024-03-22T08:02:23;16.60;99.90
13721;DHT22;6932;51.438;5.470;2024-03-22T08:04:49;16.60;99.90
13721;DHT22;6932;51.438;5.470;2024-03-22T08:07:15;16.60;99.90
13721;DHT22;6932;51.438;5.470;2024-03-22T08:09:40;16.70;99.90
13721;DHT22;6932;51.438;5.470;2024-03-22T08:12:06;16.70;99.90
13721;DHT22;6932;51.438;5.470;2024-03-22T08:14:33;16.70;99.90
13721;DHT22;6932;51.438;5.470;2024-03-22T08:16:58;16.70;99.90
13721;DHT22;6932;51.438;5.470;2024-03-22T08:19:24;16.70;99.90
13721;DHT22;6932;51.438;5.470;2024-03-22T08:21:50;16.80;99.90
13721;DHT22;6932;51.438;5.470;2024-03-22T08:24:16;16.80;99.90
13721;DHT22;6932;51.438;5.470;2024-03-22T08:26:44;16.80;99.90
13721;DHT22;6932;51.438;5.470;2024-03-22T08:29:15;16.90;99.90
13721;DHT22;6932;51.438;5.470;2024-03-22T08:31:41;16.90;99.90
13721;DHT22;6932;51.438;5.470;2024-03-22T08:34:08;16.90;99.90
13721;DHT22;6932;51.438;5.470;2024-03-22T08:36:34;16.90;99.90
13721;DHT22;6932;51.438;5.470;2024-03-22T08:39:00;16.90;99.90
13721;DHT22;6932;51.438;5.470;2024-03-22T08:41:26;16.90;99.90
13721;DHT22;6932;51.438;5.470;2024-03-22T08:43:51;16.90;99.90
13721;DHT22;6932;51.438;5.470;2024-03-22T08:46:17;16.90;99.90
13721;DHT22;6932;51.438;5.470;2024-03-22T08:48:43;16.90;99.90
13721;DHT22;6932;51.438;5.470;2024-03-22T08:51:08;16.90;99.90
13721;DHT22;6932;51.438;5.470;2024-03-22T08:53:34;16.90;99.90
13721;DHT22;6932;51.438;5.470;2024-03-22T08:56:00;16.90;99.90
13721;DHT22;6932;51.438;5.470;2024-03-22T08:58:26;16.90;99.90
13721;DHT22;6932;51.438;5.470;2024-03-22T09:00:52;16.90;99.90
13721;DHT22;6932;51.438;5.470;2024-03-22T09:03:17;16.90;99.90
13721;DHT22;6932;51.438;5.470;2024-03-22T09:05:43;16.90;99.90
13721;DHT22;6932;51.438;5.470;2024-03-22T09:08:09;16.90;99.90
13721;DHT22;6932;51.438;5.470;2024-03-22T09:10:35;16.80;99.90
13721;DHT22;6932;51.438;5.470;2024-03-22T09:13:01;16.70;99.90
13721;DHT22;6932;51.438;5.470;2024-03-22T09:15:26;16.60;99.90
13721;DHT22;6932;51.438;5.470;2024-03-22T09:17:52;16.40;99.90
13721;DHT22;6932;51.438;5.470;2024-03-22T09:20:18;16.20;99.90
13721;DHT22;6932;51.438;5.470;2024-03-22T09:22:44;16.10;99.90
13721;DHT22;6932;51.438;5.470;2024-03-22T09:25:09;16.10;99.90
13721;DHT22;6932;51.438;5.470;2024-03-22T09:27:35;15.90;99.90
13721;DHT22;6932;51.438;5.470;2024-03-22T09:30:01;15.90;99.90
13721;DHT22;6932;51.438;5.470;2024-03-22T09:32:29;15.90;99.90
13721;DHT22;6932;51.438;5.470;2024-03-22T09:34:55;15.90;99.90
13721;DHT22;6932;51.438;5.470;2024-03-22T09:37:21;15.90;99.90
13721;DHT22;6932;51.438;5.470;2024-03-22T09:39:47;16.00;99.90
13721;DHT22;6932;51.438;5.470;2024-03-22T09:42:23;16.10;99.90
13721;DHT22;6932;51.438;5.470;2024-03-22T09:44:51;16.20;99.90
13721;DHT22;6932;51.438;5.470;2024-03-22T09:47:17;16.30;99.90
13721;DHT22;6932;51.438;5.470;2024-03-22T09:49:44;16.40;99.90
13721;DHT22;6932;51.438;5.470;2024-03-22T09:52:13;16.50;99.90
13721;DHT22;6932;51.438;5.470;2024-03-22T09:54:41;16.60;99.90
13721;DHT22;6932;51.438;5.470;2024-03-22T09:57:13;16.70;99.90
13721;DHT22;6932;51.438;5.470;2024-03-22T09:59:45;16.70;99.90
13721;DHT22;6932;51.438;5.470;2024-03-22T10:02:12;16.80;99.90
13721;DHT22;6932;51.438;5.470;2024-03-22T10:04:42;16.80;99.90
13721;DHT22;6932;51.438;5.470;2024-03-22T10:07:08;16.90;99.90
13721;DHT22;6932;51.438;5.470;2024-03-22T10:09:39;16.90;99.90
13721;DHT22;6932;51.438;5.470;2024-03-22T10:12:04;16.90;99.90
13721;DHT22;6932;51.438;5.470;2024-03-22T10:14:30;16.90;99.90
13721;DHT22;6932;51.438;5.470;2024-03-22T10:16:57;16.90;99.90
13721;DHT22;6932;51.438;5.470;2024-03-22T10:19:24;17.00;99.90
13721;DHT22;6932;51.438;5.470;2024-03-22T10:22:03;17.00;99.90
13721;DHT22;6932;51.438;5.470;2024-03-22T10:24:29;16.90;99.90
13721;DHT22;6932;51.438;5.470;2024-03-22T10:26:56;17.00;99.90
13721;DHT22;6932;51.438;5.470;2024-03-22T10:29:22;17.00;99.90
13721;DHT22;6932;51.438;5.470;2024-03-22T10:31:50;17.00;99.90
13721;DHT22;6932;51.438;5.470;2024-03-22T10:34:18;17.00;99.90
13721;DHT22;6932;51.438;5.470;2024-03-22T10:36:46;17.00;99.90
13721;DHT22;6932;51.438;5.470;2024-03-22T10:39:15;17.00;99.90
13721;DHT22;6932;51.438;5.470;2024-03-22T10:41:47;17.00;99.90
13721;DHT22;6932;51.438;5.470;2024-03-22T10:44:16;17.00;99.90
13721;DHT22;6932;51.438;5.470;2024-03-22T10:46:45;17.00;99.90
13721;DHT22;6932;51.438;5.470;2024-03-22T10:49:17;17.00;99.90
13721;DHT22;6932;51.438;5.470;2024-03-22T10:51:47;17.00;99.90
13721;DHT22;6932;51.438;5.470;2024-03-22T10:54:20;17.00;99.90
13721;DHT22;6932;51.438;5.470;2024-03-22T10:56:50;17.00;99.90
13721;DHT22;6932;51.438;5.470;2024-03-22T10:59:21;17.00;99.90
13721;DHT22;6932;51.438;5.470;2024-03-22T11:01:48;17.00;99.90
13721;DHT22;6932;51.438;5.470;2024-03-22T11:04:21;17.00;99.90
13721;DHT22;6932;51.438;5.470;2024-03-22T11:06:50;17.00;99.90
13721;DHT22;6932;51.438;5.470;2024-03-22T11:09:23;17.00;99.90
13721;DHT22;6932;51.438;5.470;2024-03-22T11:11:55;17.00;99.90
13721;DHT22;6932;51.438;5.470;2024-03-22T11:14:22;17.00;99.90
13721;DHT22;6932;51.438;5.470;2024-03-22T11:16:50;17.00;99.90
13721;DHT22;6932;51.438;5.470;2024-03-22T11:19:16;17.00;99.90
13721;DHT22;6932;51.438;5.470;2024-03-22T11:21:42;17.00;99.90
13721;DHT22;6932;51.438;5.470;2024-03-22T11:24:08;16.90;99.90
13721;DHT22;6932;51.438;5.470;2024-03-22T11:26:35;16.90;99.90
13721;DHT22;6932;51.438;5.470;2024-03-22T11:29:01;16.90;99.90
13721;DHT22;6932;51.438;5.470;2024-03-22T11:31:27;16.90;99.90
13721;DHT22;6932;51.438;5.470;2024-03-22T11:33:53;16.90;99.90
13721;DHT22;6932;51.438;5.470;2024-03-22T11:36:20;16.90;99.90
13721;DHT22;6932;51.438;5.470;2024-03-22T11:38:46;16.90;99.90
13721;DHT22;6932;51.438;5.470;2024-03-22T11:41:17;16.90;99.90
13721;DHT22;6932;51.438;5.470;2024-03-22T11:43:47;16.90;99.90
13721;DHT22;6932;51.438;5.470;2024-03-22T11:46:14;16.90;99.90
13721;DHT22;6932;51.438;5.470;2024-03-22T11:48:41;16.90;99.90
13721;DHT22;6932;51.438;5.470;2024-03-22T11:51:08;16.90;99.90
13721;DHT22;6932;51.438;5.470;2024-03-22T11:53:35;16.90;99.90
13721;DHT22;6932;51.438;5.470;2024-03-22T11:56:02;16.90;99.90
13721;DHT22;6932;51.438;5.470;2024-03-22T11:58:29;16.90;99.90
13721;DHT22;6932;51.438;5.470;2024-03-22T12:00:56;16.90;99.90
13721;DHT22;6932;51.438;5.470;2024-03-22T12:03:22;16.90;99.90
13721;DHT22;6932;51.438;5.470;2024-03-22T12:05:49;16.90;99.90
13721;DHT22;6932;51.438;5.470;2024-03-22T12:08:17;16.90;99.90
13721;DHT22;6932;51.438;5.470;2024-03-22T12:10:43;16.90;99.90
13721;DHT22;6932;51.438;5.470;2024-03-22T12:13:09;16.80;99.90
13721;DHT22;6932;51.438;5.470;2024-03-22T12:15:35;16.80;99.90
13721;DHT22;6932;51.438;5.470;2024-03-22T12:18:02;16.80;99.90
13721;DHT22;6932;51.438;5.470;2024-03-22T12:20:28;16.80;99.90
13721;DHT22;6932;51.438;5.470;2024-03-22T12:22:55;16.80;99.90
13721;DHT22;6932;51.438;5.470;2024-03-22T12:25:21;16.80;99.90
13721;DHT22;6932;51.438;5.470;2024-03-22T12:27:47;16.80;99.90
13721;DHT22;6932;51.438;5.470;2024-03-22T12:30:13;16.80;99.90
13721;DHT22;6932;51.438;5.470;2024-03-22T12:32:39;16.80;99.90
13721;DHT22;6932;51.438;5.470;2024-03-22T12:35:05;16.80;99.90
13721;DHT22;6932;51.438;5.470;2024-03-22T12:37:31;16.80;99.90
13721;DHT22;6932;51.438;5.470;2024-03-22T12:39:56;16.80;99.90
13721;DHT22;6932;51.438;5.470;2024-03-22T12:42:22;16.80;99.90
13721;DHT22;6932;51.438;5.470;2024-03-22T12:44:48;16.80;99.90
13721;DHT22;6932;51.438;5.470;2024-03-22T12:47:14;16.80;99.90
13721;DHT22;6932;51.438;5.470;2024-03-22T12:49:40;16.80;99.90
13721;DHT22;6932;51.438;5.470;2024-03-22T12:52:06;16.80;99.90
13721;DHT22;6932;51.438;5.470;2024-03-22T12:54:32;16.80;99.90
13721;DHT22;6932;51.438;5.470;2024-03-22T12:56:58;16.80;99.90
13721;DHT22;6932;51.438;5.470;2024-03-22T12:59:23;16.80;99.90
13721;DHT22;6932;51.438;5.470;2024-03-22T13:01:49;16.80;99.90
13721;DHT22;6932;51.438;5.470;2024-03-22T13:04:15;16.80;99.90
13721;DHT22;6932;51.438;5.470;2024-03-22T13:06:43;16.80;99.90
13721;DHT22;6932;51.438;5.470;2024-03-22T13:09:08;16.80;99.90
13721;DHT22;6932;51.438;5.470;2024-03-22T13:11:35;16.80;99.90
13721;DHT22;6932;51.438;5.470;2024-03-22T13:14:02;16.80;99.90
13721;DHT22;6932;51.438;5.470;2024-03-22T13:16:28;16.80;99.90
13721;DHT22;6932;51.438;5.470;2024-03-22T13:18:53;16.70;99.90
13721;DHT22;6932;51.438;5.470;2024-03-22T13:21:19;16.70;99.90
13721;DHT22;6932;51.438;5.470;2024-03-22T13:23:45;16.70;99.90
13721;DHT22;6932;51.438;5.470;2024-03-22T13:26:11;16.70;99.90
13721;DHT22;6932;51.438;5.470;2024-03-22T13:28:36;16.70;99.90
13721;DHT22;6932;51.438;5.470;2024-03-22T13:31:03;16.70;99.90
13721;DHT22;6932;51.438;5.470;2024-03-22T13:33:33;16.70;99.90
13721;DHT22;6932;51.438;5.470;2024-03-22T13:36:01;16.70;99.90
13721;DHT22;6932;51.438;5.470;2024-03-22T13:38:27;16.60;99.90
13721;DHT22;6932;51.438;5.470;2024-03-22T13:40:57;16.60;99.90
13721;DHT22;6932;51.438;5.470;2024-03-22T13:43:26;16.60;99.90
13721;DHT22;6932;51.438;5.470;2024-03-22T13:45:55;16.60;99.90
13721;DHT22;6932;51.438;5.470;2024-03-22T13:48:22;16.60;99.90
13721;DHT22;6932;51.438;5.470;2024-03-22T13:50:53;16.50;99.90
13721;DHT22;6932;51.438;5.470;2024-03-22T13:53:21;16.50;99.90
13721;DHT22;6932;51.438;5.470;2024-03-22T13:55:50;16.50;99.90
13721;DHT22;6932;51.438;5.470;2024-03-22T13:58:18;16.50;99.90
13721;DHT22;6932;51.438;5.470;2024-03-22T14:00:44;16.40;99.90
13721;DHT22;6932;51.438;5.470;2024-03-22T14:03:10;16.40;99.90
13721;DHT22;6932;51.438;5.470;2024-03-22T14:05:35;16.30;99.90
13721;DHT22;6932;51.438;5.470;2024-03-22T14:08:01;16.30;99.90
13721;DHT22;6932;51.438;5.470;2024-03-22T14:10:29;16.30;99.90
13721;DHT22;6932;51.438;5.470;2024-03-22T14:12:58;16.30;99.90
13721;DHT22;6932;51.438;5.470;2024-03-22T14:15:25;16.30;99.90
13721;DHT22;6932;51.438;5.470;2024-03-22T14:17:52;16.30;99.90
13721;DHT22;6932;51.438;5.470;2024-03-22T14:20:18;16.20;99.90
13721;DHT22;6932;51.438;5.470;2024-03-22T14:22:44;16.20;99.90
13721;DHT22;6932;51.438;5.470;2024-03-22T14:25:11;16.20;99.90
13721;DHT22;6932;51.438;5.470;2024-03-22T14:27:38;16.20;99.90
13721;DHT22;6932;51.438;5.470;2024-03-22T14:30:05;16.20;99.90
13721;DHT22;6932;51.438;5.470;2024-03-22T14:32:33;16.20;99.90
13721;DHT22;6932;51.438;5.470;2024-03-22T14:35:00;16.20;99.90
13721;DHT22;6932;51.438;5.470;2024-03-22T14:37:26;16.20;99.90
13721;DHT22;6932;51.438;5.470;2024-03-22T14:39:52;16.20;99.90
13721;DHT22;6932;51.438;5.470;2024-03-22T14:42:18;16.20;99.90
13721;DHT22;6932;51.438;5.470;2024-03-22T14:44:43;16.20;99.90
13721;DHT22;6932;51.438;5.470;2024-03-22T14:47:10;16.10;99.90
13721;DHT22;6932;51.438;5.470;2024-03-22T14:49:36;16.10;99.90
13721;DHT22;6932;51.438;5.470;2024-03-22T14:52:01;16.10;99.90
13721;DHT22;6932;51.438;5.470;2024-03-22T14:54:27;16.10;99.90
13721;DHT22;6932;51.438;5.470;2024-03-22T14:56:53;16.10;99.90
13721;DHT22;6932;51.438;5.470;2024-03-22T14:59:20;16.00;99.90
13721;DHT22;6932;51.438;5.470;2024-03-22T15:01:46;16.00;99.90
13721;DHT22;6932;51.438;5.470;2024-03-22T15:04:12;16.10;99.90
13721;DHT22;6932;51.438;5.470;2024-03-22T15:06:38;16.00;99.90
13721;DHT22;6932;51.438;5.470;2024-03-22T15:09:04;16.00;99.90
13721;DHT22;6932;51.438;5.470;2024-03-22T15:11:34;16.00;99.90
13721;DHT22;6932;51.438;5.470;2024-03-22T15:14:01;16.00;99.90
13721;DHT22;6932;51.438;5.470;2024-03-22T15:16:26;16.00;99.90
13721;DHT22;6932;51.438;5.470;2024-03-22T15:18:52;16.00;99.90
13721;DHT22;6932;51.438;5.470;2024-03-22T15:21:18;16.00;99.90
13721;DHT22;6932;51.438;5.470;2024-03-22T15:23:45;16.00;99.90
13721;DHT22;6932;51.438;5.470;2024-03-22T15:26:12;16.00;99.90
13721;DHT22;6932;51.438;5.470;2024-03-22T15:28:38;16.00;99.90
13721;DHT22;6932;51.438;5.470;2024-03-22T15:31:06;16.00;99.90
13721;DHT22;6932;51.438;5.470;2024-03-22T15:33:32;16.00;99.90
13721;DHT22;6932;51.438;5.470;2024-03-22T15:35:58;16.00;99.90
13721;DHT22;6932;51.438;5.470;2024-03-22T15:38:24;16.00;99.90
13721;DHT22;6932;51.438;5.470;2024-03-22T15:40:50;16.00;99.90